Time;durP1;ratioP1;P1;durP2;ratioP2;P2;SDS_P1;SDS_P2;PMS_P1;PMS_P2;Temp;Humidity;BMP_temperature;BMP_pressure;BME280_temperature;BME280_humidity;BME280_pressure;Samples;Min_cycle;Max_cycle;Signal;HPM_P1;HPM_P2
2023/04/19 00:00:43;;;;;;;14.70;9.57;;;8.50;99.90;;;;;;5005571;28;20025;-32
2023/04/19 00:03:09;;;;;;;15.27;9.77;;;8.50;99.90;;;;;;5002062;28;20038;-32
2023/04/19 00:05:37;;;;;;;15.82;9.55;;;8.40;99.90;;;;;;5005280;28;20491;-32
2023/04/19 00:08:03;;;;;;;16.15;10.02;;;8.40;99.90;;;;;;5004299;28;20026;-32
2023/04/19 00:10:29;;;;;;;17.05;10.40;;;8.40;99.90;;;;;;5003055;28;20076;-32
2023/04/19 00:12:54;;;;;;;15.95;9.88;;;8.40;99.90;;;;;;5005997;28;20042;-32
2023/04/19 00:15:20;;;;;;;16.10;9.70;;;8.40;99.90;;;;;;5005253;28;20045;-31
2023/04/19 00:17:46;;;;;;;15.43;9.52;;;8.40;99.90;;;;;;4998871;28;20363;-31
2023/04/19 00:20:12;;;;;;;15.10;9.98;;;8.40;99.90;;;;;;4996862;28;20038;-32
2023/04/19 00:22:38;;;;;;;16.30;11.35;;;8.30;99.90;;;;;;5004432;28;20490;-32
2023/04/19 00:25:04;;;;;;;15.95;10.77;;;8.40;99.90;;;;;;5003797;28;20034;-32
2023/04/19 00:27:29;;;;;;;16.20;10.75;;;8.40;99.90;;;;;;5002224;28;20515;-32
2023/04/19 00:29:56;;;;;;;16.92;10.82;;;8.30;99.90;;;;;;5005467;28;20032;-32
2023/04/19 00:32:22;;;;;;;17.85;11.05;;;8.30;99.90;;;;;;5004829;28;20128;-32
2023/04/19 00:34:48;;;;;;;16.95;11.05;;;8.30;99.90;;;;;;5003572;28;20148;-32
2023/04/19 00:37:13;;;;;;;15.63;9.95;;;8.30;99.90;;;;;;5005339;28;20045;-32
2023/04/19 00:39:39;;;;;;;14.85;10.30;;;8.30;99.90;;;;;;5002798;28;20026;-32
2023/04/19 00:42:05;;;;;;;18.13;11.15;;;8.30;99.90;;;;;;5004088;28;20462;-32
2023/04/19 00:44:30;;;;;;;17.30;10.40;;;8.30;99.90;;;;;;5007116;28;20053;-32
2023/04/19 00:46:56;;;;;;;18.35;10.75;;;8.30;99.90;;;;;;5005514;28;20131;-32
2023/04/19 00:49:23;;;;;;;17.83;11.10;;;8.30;99.90;;;;;;5009090;28;20121;-32
2023/04/19 00:51:51;;;;;;;19.33;11.70;;;8.30;99.90;;;;;;5005153;28;20057;-32
2023/04/19 00:54:18;;;;;;;22.70;11.30;;;8.20;99.90;;;;;;5006917;28;20049;-32
2023/04/19 00:56:44;;;;;;;18.58;11.30;;;8.20;99.90;;;;;;5022116;28;20034;-32
2023/04/19 00:59:10;;;;;;;18.13;10.95;;;8.20;99.90;;;;;;5006346;28;20426;-32
2023/04/19 01:01:37;;;;;;;19.17;12.00;;;8.10;99.90;;;;;;5003911;28;20045;-32
2023/04/19 01:04:04;;;;;;;18.73;11.93;;;8.20;99.90;;;;;;5006332;28;20023;-32
2023/04/19 01:06:29;;;;;;;18.67;11.65;;;8.20;99.90;;;;;;5007534;28;20038;-32
2023/04/19 01:08:56;;;;;;;16.92;11.85;;;8.20;99.90;;;;;;5006428;28;20394;-32
2023/04/19 01:11:25;;;;;;;21.38;12.23;;;8.20;99.90;;;;;;5004914;28;20081;-32
2023/04/19 01:13:50;;;;;;;20.15;12.50;;;8.20;99.90;;;;;;5001236;28;20527;-32
2023/04/19 01:16:16;;;;;;;18.10;12.20;;;8.20;99.90;;;;;;5005874;28;20030;-32
2023/04/19 01:18:42;;;;;;;17.67;10.73;;;8.20;99.90;;;;;;5001539;28;20486;-31
2023/04/19 01:21:08;;;;;;;17.00;10.82;;;8.20;99.90;;;;;;5004871;28;20060;-32
2023/04/19 01:23:34;;;;;;;18.42;11.38;;;8.10;99.90;;;;;;5005352;28;20117;-32
2023/04/19 01:26:03;;;;;;;16.42;10.27;;;8.10;99.90;;;;;;5003519;28;20025;-33
2023/04/19 01:28:28;;;;;;;19.08;11.45;;;8.00;99.90;;;;;;5007174;28;20033;-32
2023/04/19 01:30:54;;;;;;;20.10;11.32;;;8.00;99.90;;;;;;5002311;28;20038;-32
2023/04/19 01:33:20;;;;;;;20.35;12.25;;;8.00;99.90;;;;;;5008552;28;20029;-31
2023/04/19 01:35:47;;;;;;;18.10;11.23;;;8.00;99.90;;;;;;5002426;28;20129;-32
2023/04/19 01:38:13;;;;;;;19.05;10.50;;;8.00;99.90;;;;;;5006125;28;20026;-32
2023/04/19 01:40:38;;;;;;;18.50;11.63;;;7.90;99.90;;;;;;5005017;28;20026;-32
2023/04/19 01:43:05;;;;;;;20.63;12.02;;;7.90;99.90;;;;;;5005345;28;20285;-31
2023/04/19 01:45:32;;;;;;;18.75;12.15;;;7.90;99.90;;;;;;4999938;28;20108;-32
2023/04/19 01:48:00;;;;;;;19.60;11.85;;;7.90;99.90;;;;;;5004517;28;20380;-32
2023/04/19 01:50:26;;;;;;;19.50;11.63;;;7.90;99.90;;;;;;5000614;28;20030;-32
2023/04/19 01:52:51;;;;;;;20.45;12.25;;;7.90;99.90;;;;;;5002975;28;20033;-32
2023/04/19 01:55:17;;;;;;;20.50;12.45;;;7.90;99.90;;;;;;5003746;28;20042;-32
2023/04/19 01:57:43;;;;;;;19.60;12.23;;;7.90;99.90;;;;;;5004896;28;20072;-32
2023/04/19 02:00:09;;;;;;;20.75;12.07;;;7.90;99.90;;;;;;5001962;28;20454;-32
2023/04/19 02:02:36;;;;;;;18.17;12.27;;;7.90;99.90;;;;;;5003619;28;20069;-32
2023/04/19 02:05:03;;;;;;;24.95;13.65;;;7.80;99.90;;;;;;5004690;28;20040;-32
2023/04/19 02:07:28;;;;;;;20.50;12.50;;;7.90;99.90;;;;;;5004393;28;20038;-32
2023/04/19 02:09:54;;;;;;;21.05;12.48;;;7.80;99.90;;;;;;5004352;28;20491;-33
2023/04/19 02:12:19;;;;;;;23.77;14.07;;;7.80;99.90;;;;;;5002951;28;20525;-32
2023/04/19 02:14:45;;;;;;;21.25;12.70;;;7.80;99.90;;;;;;5004797;28;20034;-32
2023/04/19 02:17:11;;;;;;;19.98;11.85;;;7.80;99.90;;;;;;4997411;28;20044;-32
2023/04/19 02:19:36;;;;;;;23.95;13.27;;;7.90;99.90;;;;;;4994923;28;20104;-32
2023/04/19 02:22:02;;;;;;;20.38;11.13;;;7.80;99.90;;;;;;4998180;28;20188;-32
2023/04/19 02:24:28;;;;;;;20.52;12.65;;;7.80;99.90;;;;;;4994908;28;20042;-32
2023/04/19 02:26:53;;;;;;;25.20;12.82;;;7.80;99.90;;;;;;5000802;28;20502;-33
2023/04/19 02:29:19;;;;;;;20.27;12.05;;;7.80;99.90;;;;;;5001053;28;20030;-34
2023/04/19 02:31:45;;;;;;;20.25;12.15;;;7.80;99.90;;;;;;5002250;28;20616;-32
2023/04/19 02:34:11;;;;;;;23.83;13.48;;;7.70;99.90;;;;;;5003564;28;20022;-32
2023/04/19 02:36:37;;;;;;;23.27;13.05;;;7.80;99.90;;;;;;5001144;28;20314;-32
2023/04/19 02:39:04;;;;;;;23.20;12.85;;;7.80;99.90;;;;;;5003815;28;20495;-31
2023/04/19 02:41:30;;;;;;;20.23;11.98;;;7.70;99.90;;;;;;4999640;28;20029;-32
2023/04/19 02:43:55;;;;;;;21.73;12.55;;;7.80;99.90;;;;;;5001489;28;20045;-32
2023/04/19 02:46:21;;;;;;;23.27;12.02;;;7.80;99.90;;;;;;4999379;28;20033;-31
2023/04/19 02:48:46;;;;;;;19.95;12.30;;;7.80;99.90;;;;;;5003712;28;20034;-31
2023/04/19 02:51:16;;;;;;;20.42;11.93;;;7.70;99.90;;;;;;5003666;28;20379;-33
2023/04/19 02:53:42;;;;;;;22.27;12.35;;;7.70;99.90;;;;;;5002316;28;20118;-32
2023/04/19 02:56:08;;;;;;;22.10;13.00;;;7.70;99.90;;;;;;5001738;28;20124;-32
2023/04/19 02:58:34;;;;;;;19.98;12.45;;;7.70;99.90;;;;;;5002745;28;20038;-31
2023/04/19 03:00:59;;;;;;;22.67;12.02;;;7.70;99.90;;;;;;5001843;28;20033;-30
2023/04/19 03:03:25;;;;;;;20.05;12.52;;;7.70;99.90;;;;;;5003192;28;20079;-31
2023/04/19 03:05:51;;;;;;;20.25;12.27;;;7.70;99.90;;;;;;5000210;28;20069;-31
2023/04/19 03:08:17;;;;;;;21.92;12.07;;;7.70;99.90;;;;;;5004850;28;20044;-33
2023/04/19 03:10:42;;;;;;;18.92;11.55;;;7.70;99.90;;;;;;5001145;28;20034;-32
2023/04/19 03:13:08;;;;;;;21.42;11.95;;;7.80;99.90;;;;;;4998151;28;20092;-32
2023/04/19 03:15:33;;;;;;;20.95;12.35;;;7.80;99.90;;;;;;4999486;28;20034;-32
2023/04/19 03:17:59;;;;;;;23.00;13.02;;;7.80;99.90;;;;;;5003480;28;20104;-32
2023/04/19 03:20:25;;;;;;;18.92;12.15;;;7.80;99.90;;;;;;5001881;28;20022;-32
2023/04/19 03:22:51;;;;;;;22.45;12.77;;;7.80;99.90;;;;;;4998445;28;20406;-32
2023/04/19 03:25:16;;;;;;;23.20;13.18;;;7.80;99.90;;;;;;5002340;28;20109;-32
2023/04/19 03:27:44;;;;;;;25.75;13.85;;;7.80;99.90;;;;;;5003176;28;20487;-31
2023/04/19 03:30:11;;;;;;;21.10;12.88;;;7.80;99.90;;;;;;5003513;28;20080;-31
2023/04/19 03:32:36;;;;;;;21.60;12.07;;;7.80;99.90;;;;;;5001981;28;20070;-32
2023/04/19 03:35:02;;;;;;;19.13;12.68;;;7.80;99.90;;;;;;4998396;28;20141;-32
2023/04/19 03:37:28;;;;;;;19.77;11.85;;;7.80;99.90;;;;;;5003692;28;20120;-31
2023/04/19 03:39:53;;;;;;;22.42;12.45;;;7.80;99.90;;;;;;5002719;28;20034;-31
2023/04/19 03:42:19;;;;;;;19.73;12.32;;;7.80;99.90;;;;;;5001206;28;20036;-33
2023/04/19 03:44:45;;;;;;;22.63;12.95;;;7.80;99.90;;;;;;5002400;28;20030;-32
2023/04/19 03:47:10;;;;;;;20.38;12.40;;;7.80;99.90;;;;;;5001102;28;20064;-33
2023/04/19 03:49:36;;;;;;;25.45;12.52;;;7.80;99.90;;;;;;5002698;28;20041;-32
2023/04/19 03:52:02;;;;;;;20.63;12.45;;;7.80;99.90;;;;;;5000597;28;21443;-33
2023/04/19 03:54:27;;;;;;;22.25;12.68;;;7.80;99.90;;;;;;5004868;28;20021;-32
2023/04/19 03:56:53;;;;;;;22.50;12.35;;;7.80;99.90;;;;;;5000584;28;20034;-32
2023/04/19 03:59:18;;;;;;;18.95;11.55;;;7.70;99.90;;;;;;5004018;28;20041;-32
2023/04/19 04:01:44;;;;;;;20.63;11.52;;;7.80;99.90;;;;;;5001618;28;20176;-31
2023/04/19 04:04:13;;;;;;;24.58;12.43;;;7.80;99.90;;;;;;5002297;28;20044;-32
2023/04/19 04:06:38;;;;;;;23.60;13.20;;;7.80;99.90;;;;;;5000807;28;20088;-32
2023/04/19 04:09:04;;;;;;;21.88;12.85;;;7.90;99.90;;;;;;5004838;28;20402;-31
2023/04/19 04:11:30;;;;;;;23.65;13.25;;;7.80;99.90;;;;;;4999344;28;20038;-32
2023/04/19 04:13:55;;;;;;;21.80;11.63;;;7.80;99.90;;;;;;5003785;28;20543;-31
2023/04/19 04:16:21;;;;;;;22.20;12.35;;;7.80;99.90;;;;;;4998197;28;20176;-32
2023/04/19 04:18:47;;;;;;;23.52;11.77;;;7.80;99.90;;;;;;5003305;28;20041;-32
2023/04/19 04:21:13;;;;;;;22.20;13.27;;;7.80;99.90;;;;;;5006088;28;20121;-32
2023/04/19 04:23:38;;;;;;;23.33;11.82;;;7.80;99.90;;;;;;5004665;28;20049;-32
2023/04/19 04:26:05;;;;;;;22.27;11.93;;;7.80;99.90;;;;;;5005269;28;20060;-33
2023/04/19 04:28:31;;;;;;;23.92;13.57;;;7.80;99.90;;;;;;5006686;28;20120;-33
2023/04/19 04:30:58;;;;;;;19.02;11.57;;;7.80;99.90;;;;;;5002169;28;20133;-32
2023/04/19 04:33:25;;;;;;;23.85;12.70;;;7.90;99.90;;;;;;5004099;28;20038;-32
2023/04/19 04:35:52;;;;;;;24.67;13.32;;;7.80;99.90;;;;;;5006299;28;20046;-32
2023/04/19 04:38:17;;;;;;;22.05;12.38;;;7.90;99.90;;;;;;5002768;28;20040;-32
2023/04/19 04:40:48;;;;;;;21.92;11.57;;;7.80;99.90;;;;;;5005944;28;20025;-32
2023/04/19 04:43:13;;;;;;;23.08;13.15;;;7.80;99.90;;;;;;5008162;28;20109;-32
2023/04/19 04:45:39;;;;;;;21.98;11.73;;;7.80;99.90;;;;;;5006927;28;20558;-32
2023/04/19 04:48:04;;;;;;;22.25;12.00;;;7.80;99.90;;;;;;5007202;28;20367;-32
2023/04/19 04:50:30;;;;;;;21.98;11.95;;;7.80;99.90;;;;;;5005807;28;20758;-32
2023/04/19 04:52:56;;;;;;;19.95;12.02;;;7.70;99.90;;;;;;5008408;28;21719;-32
2023/04/19 04:55:21;;;;;;;23.80;12.40;;;7.80;99.90;;;;;;5004800;28;20529;-32
2023/04/19 04:57:47;;;;;;;21.15;11.75;;;7.80;99.90;;;;;;5005461;28;20346;-32
2023/04/19 05:00:13;;;;;;;22.40;11.80;;;7.80;99.90;;;;;;5005054;28;20030;-32
2023/04/19 05:02:38;;;;;;;21.75;12.55;;;7.80;99.90;;;;;;5000729;28;20117;-32
2023/04/19 05:05:04;;;;;;;22.42;12.15;;;7.80;99.90;;;;;;5006748;28;20073;-32
2023/04/19 05:07:30;;;;;;;23.00;12.52;;;7.80;99.90;;;;;;5005151;28;20632;-31
2023/04/19 05:09:55;;;;;;;26.45;12.63;;;7.70;99.90;;;;;;5008821;28;20030;-32
2023/04/19 05:12:21;;;;;;;21.67;12.88;;;7.80;99.90;;;;;;5003256;28;20471;-32
2023/04/19 05:14:46;;;;;;;25.15;13.65;;;7.80;99.90;;;;;;5003407;28;20479;-31
2023/04/19 05:17:12;;;;;;;20.35;11.13;;;7.80;99.90;;;;;;5005811;28;20045;-31
2023/04/19 05:19:37;;;;;;;22.27;12.38;;;7.80;99.90;;;;;;5003713;28;20557;-32
2023/04/19 05:22:03;;;;;;;25.25;12.65;;;7.80;99.90;;;;;;5004682;28;20447;-32
2023/04/19 05:24:28;;;;;;;24.25;12.73;;;7.80;99.90;;;;;;5005774;28;20025;-32
2023/04/19 05:26:55;;;;;;;22.80;11.68;;;7.80;99.90;;;;;;5001796;28;20035;-32
2023/04/19 05:29:20;;;;;;;22.77;11.82;;;7.80;99.90;;;;;;5001575;28;20041;-33
2023/04/19 05:31:46;;;;;;;21.52;11.68;;;7.80;99.90;;;;;;5004032;28;20034;-32
2023/04/19 05:34:11;;;;;;;22.88;12.70;;;7.70;99.90;;;;;;5004591;28;20022;-31
2023/04/19 05:36:37;;;;;;;23.77;11.82;;;7.70;99.90;;;;;;5000432;28;20423;-32
2023/04/19 05:39:03;;;;;;;28.13;13.05;;;7.70;99.90;;;;;;5005689;28;20022;-33
2023/04/19 05:41:28;;;;;;;25.23;12.73;;;7.70;99.90;;;;;;5003322;28;20113;-31
2023/04/19 05:43:54;;;;;;;21.48;10.40;;;7.70;99.90;;;;;;5001847;28;20033;-33
2023/04/19 05:46:20;;;;;;;20.67;11.10;;;7.70;99.90;;;;;;5006604;28;20407;-32
2023/04/19 05:48:45;;;;;;;24.05;11.80;;;7.70;99.90;;;;;;5003620;28;20441;-32
2023/04/19 05:51:11;;;;;;;24.83;12.43;;;7.70;99.90;;;;;;5003643;28;20442;-33
2023/04/19 05:53:37;;;;;;;23.38;11.75;;;7.70;99.90;;;;;;5004543;28;20025;-32
2023/04/19 05:56:03;;;;;;;24.20;11.98;;;7.70;99.90;;;;;;5006019;28;20397;-32
2023/04/19 05:58:28;;;;;;;21.10;11.07;;;7.70;99.90;;;;;;5001825;28;20033;-32
2023/04/19 06:00:54;;;;;;;25.00;12.60;;;7.80;99.90;;;;;;5001942;28;20034;-32
2023/04/19 06:03:20;;;;;;;24.52;11.20;;;7.80;99.90;;;;;;5003331;28;20033;-32
2023/04/19 06:05:45;;;;;;;25.52;11.93;;;7.70;99.90;;;;;;5000793;28;20030;-31
2023/04/19 06:08:11;;;;;;;24.33;11.35;;;7.70;99.90;;;;;;5006704;28;20032;-32
2023/04/19 06:10:37;;;;;;;25.08;12.02;;;7.70;99.90;;;;;;5001654;28;20029;-32
2023/04/19 06:13:03;;;;;;;22.63;11.57;;;7.70;99.90;;;;;;4999038;28;20096;-31
2023/04/19 06:15:29;;;;;;;22.50;11.77;;;7.80;99.90;;;;;;5006442;28;20491;-31
2023/04/19 06:17:55;;;;;;;23.67;11.90;;;7.80;99.90;;;;;;5005362;28;20048;-32
2023/04/19 06:20:20;;;;;;;23.60;11.35;;;7.80;99.90;;;;;;5005032;28;20109;-32
2023/04/19 06:22:48;;;;;;;21.73;11.88;;;7.80;99.90;;;;;;5004252;28;20558;-31
2023/04/19 06:25:13;;;;;;;25.10;12.52;;;7.80;99.90;;;;;;5003959;28;20064;-32
2023/04/19 06:27:39;;;;;;;22.77;11.60;;;7.80;99.90;;;;;;5003450;28;20030;-33
2023/04/19 06:30:06;;;;;;;22.98;12.18;;;7.80;99.90;;;;;;5003388;28;20116;-31
2023/04/19 06:32:32;;;;;;;23.77;11.55;;;7.80;99.90;;;;;;5004512;28;20041;-32
2023/04/19 06:34:57;;;;;;;25.70;12.05;;;7.80;99.90;;;;;;5004447;28;20030;-32
2023/04/19 06:37:23;;;;;;;22.35;11.07;;;7.90;99.90;;;;;;5001413;28;20141;-33
2023/04/19 06:39:48;;;;;;;22.25;11.82;;;7.80;99.90;;;;;;5021358;28;20041;-32
2023/04/19 06:42:14;;;;;;;22.13;10.95;;;7.90;99.90;;;;;;5002058;28;20496;-31
2023/04/19 06:44:40;;;;;;;19.42;10.48;;;7.90;99.90;;;;;;5003121;28;20454;-31
2023/04/19 06:47:05;;;;;;;26.38;11.50;;;7.90;99.90;;;;;;5005156;28;20390;-32
2023/04/19 06:49:31;;;;;;;29.23;11.90;;;8.00;99.90;;;;;;5003312;28;20434;-33
2023/04/19 06:51:59;;;;;;;21.73;11.68;;;8.00;99.90;;;;;;5006136;28;20049;-32
2023/04/19 06:54:25;;;;;;;20.50;10.13;;;8.00;99.90;;;;;;5001154;28;20743;-31
2023/04/19 06:56:50;;;;;;;22.60;11.60;;;8.10;99.90;;;;;;5006061;28;20558;-32
2023/04/19 06:59:19;;;;;;;20.38;10.80;;;8.10;99.90;;;;;;5002501;28;20416;-32
2023/04/19 07:01:45;;;;;;;21.35;11.55;;;8.10;99.90;;;;;;5004970;28;20034;-31
2023/04/19 07:04:12;;;;;;;22.52;11.77;;;8.20;99.90;;;;;;4997986;28;20038;-31
2023/04/19 07:06:38;;;;;;;28.95;12.52;;;8.20;99.90;;;;;;4998188;28;20120;-32
2023/04/19 07:09:05;;;;;;;20.17;10.55;;;8.30;99.90;;;;;;5003698;28;20063;-31
2023/04/19 07:11:31;;;;;;;22.73;11.23;;;8.40;99.90;;;;;;5004697;28;20126;-32
2023/04/19 07:13:58;;;;;;;23.42;11.63;;;8.50;99.90;;;;;;5000076;28;20033;-33
2023/04/19 07:16:24;;;;;;;24.20;11.85;;;8.60;99.90;;;;;;5018704;28;20149;-32
2023/04/19 07:18:49;;;;;;;21.52;11.00;;;8.60;99.90;;;;;;5004482;28;20112;-32
2023/04/19 07:21:15;;;;;;;17.95;10.57;;;8.50;99.90;;;;;;5000403;28;20034;-32
2023/04/19 07:23:40;;;;;;;22.23;11.90;;;8.60;99.90;;;;;;5001586;28;20029;-31
2023/04/19 07:26:07;;;;;;;20.85;10.63;;;8.70;99.90;;;;;;5004252;28;20116;-31
2023/04/19 07:28:32;;;;;;;23.05;11.70;;;8.70;99.90;;;;;;4998602;28;20030;-32
2023/04/19 07:30:59;;;;;;;22.42;10.85;;;8.80;99.90;;;;;;5002047;28;20495;-35
2023/04/19 07:33:26;;;;;;;23.05;12.20;;;8.80;99.90;;;;;;4998625;28;20064;-32
2023/04/19 07:35:53;;;;;;;20.60;10.43;;;8.80;99.90;;;;;;4998462;28;20140;-31
2023/04/19 07:38:18;;;;;;;21.83;11.40;;;8.80;99.90;;;;;;5004165;28;20026;-31
2023/04/19 07:40:44;;;;;;;21.63;10.52;;;8.90;99.90;;;;;;5002286;28;20053;-31
2023/04/19 07:43:10;;;;;;;21.13;10.80;;;8.90;99.90;;;;;;5002781;28;20495;-31
2023/04/19 07:45:36;;;;;;;20.92;10.50;;;8.90;99.90;;;;;;5002910;28;20055;-32
2023/04/19 07:48:01;;;;;;;19.10;10.23;;;9.00;99.90;;;;;;5004800;28;20030;-32
2023/04/19 07:50:27;;;;;;;21.20;10.95;;;9.10;99.90;;;;;;5001247;28;20383;-31
2023/04/19 07:52:53;;;;;;;20.40;11.25;;;9.10;99.90;;;;;;5002157;28;20047;-31
2023/04/19 07:55:19;;;;;;;17.27;10.93;;;9.20;99.90;;;;;;5003265;28;20753;-31
2023/04/19 07:57:47;;;;;;;20.05;10.73;;;9.30;99.90;;;;;;5007369;28;20105;-31
2023/04/19 08:00:17;;;;;;;20.42;10.55;;;9.50;99.90;;;;;;5006882;28;20105;-31
2023/04/19 08:02:46;;;;;;;21.10;11.40;;;9.60;99.90;;;;;;5006360;28;20071;-32
2023/04/19 08:05:12;;;;;;;17.88;10.23;;;9.70;99.90;;;;;;5006294;28;20057;-30
2023/04/19 08:07:39;;;;;;;19.25;11.07;;;9.70;99.90;;;;;;5003684;28;20421;-32
2023/04/19 08:10:08;;;;;;;24.08;10.95;;;9.70;99.90;;;;;;5007681;28;20029;-31
2023/04/19 08:12:34;;;;;;;18.98;11.23;;;9.60;99.90;;;;;;5004201;28;20073;-31
2023/04/19 08:15:00;;;;;;;19.45;10.55;;;9.60;99.90;;;;;;5006239;28;20069;-31
2023/04/19 08:17:26;;;;;;;20.02;10.52;;;9.70;99.90;;;;;;5004855;28;20058;-31
2023/04/19 08:19:52;;;;;;;20.42;10.98;;;9.70;99.90;;;;;;5005669;28;20057;-31
2023/04/19 08:22:19;;;;;;;18.35;11.00;;;9.60;99.90;;;;;;5002871;28;20049;-31
2023/04/19 08:24:44;;;;;;;19.98;10.63;;;9.60;99.90;;;;;;5006229;28;20383;-31
2023/04/19 08:27:10;;;;;;;17.98;9.93;;;9.60;99.90;;;;;;5006756;28;20030;-31
2023/04/19 08:29:37;;;;;;;18.40;11.20;;;9.60;99.90;;;;;;5005154;28;20350;-31
2023/04/19 08:32:04;;;;;;;18.33;12.02;;;9.60;99.90;;;;;;5003422;28;20038;-31
2023/04/19 08:34:30;;;;;;;19.13;10.73;;;9.60;99.90;;;;;;5008175;28;20030;-31
2023/04/19 08:36:56;;;;;;;17.70;10.02;;;9.70;99.90;;;;;;5002345;28;20041;-31
2023/04/19 08:39:21;;;;;;;19.40;10.07;;;9.70;99.90;;;;;;5007913;28;20493;-31
2023/04/19 08:41:49;;;;;;;17.88;9.90;;;9.60;99.90;;;;;;5006857;28;20022;-31
2023/04/19 08:44:16;;;;;;;18.50;11.15;;;9.70;99.90;;;;;;5005654;28;20022;-32
2023/04/19 08:46:42;;;;;;;18.50;10.00;;;9.80;99.90;;;;;;5007561;28;20034;-31
2023/04/19 08:49:09;;;;;;;20.73;10.93;;;9.80;99.90;;;;;;5006841;28;20493;-32
2023/04/19 08:51:37;;;;;;;18.75;11.27;;;10.00;99.90;;;;;;5006716;28;20037;-31
2023/04/19 08:54:07;;;;;;;20.40;11.50;;;10.10;99.90;;;;;;5003182;28;20068;-31
2023/04/19 08:56:33;;;;;;;21.63;11.25;;;10.20;99.90;;;;;;5007309;28;20168;-31
2023/04/19 08:58:58;;;;;;;19.40;10.93;;;10.20;99.90;;;;;;5005217;28;20112;-30
2023/04/19 09:01:24;;;;;;;19.42;11.10;;;10.30;99.90;;;;;;5001992;28;20041;-32
2023/04/19 09:03:49;;;;;;;19.33;11.68;;;10.40;99.90;;;;;;5008511;28;20030;-31
2023/04/19 09:06:15;;;;;;;24.48;12.23;;;10.50;99.90;;;;;;5005813;28;20055;-32
2023/04/19 09:08:41;;;;;;;20.98;11.07;;;10.50;99.90;;;;;;5010139;28;20124;-31
2023/04/19 09:11:07;;;;;;;21.45;11.75;;;10.40;99.90;;;;;;5007677;28;20125;-31
2023/04/19 09:13:37;;;;;;;21.35;11.63;;;10.40;99.90;;;;;;5004179;28;20030;-32
2023/04/19 09:16:03;;;;;;;15.15;9.68;;;10.30;99.90;;;;;;5003963;28;20042;-31
2023/04/19 09:18:29;;;;;;;17.48;9.52;;;10.40;99.90;;;;;;5010066;28;20113;-31
2023/04/19 09:20:59;;;;;;;17.55;9.73;;;10.40;99.90;;;;;;5006538;28;20145;-32
2023/04/19 09:23:26;;;;;;;18.67;9.95;;;10.40;99.90;;;;;;5007175;28;20018;-31
2023/04/19 09:26:03;;;;;;;19.60;9.50;;;10.30;99.90;;;;;;5006960;28;20502;-32
2023/04/19 09:28:29;;;;;;;15.95;9.45;;;10.30;99.90;;;;;;5003872;28;20468;-31
2023/04/19 09:30:55;;;;;;;15.07;9.15;;;10.40;99.90;;;;;;5003342;28;20455;-31
2023/04/19 09:33:36;;;;;;;15.43;8.40;;;10.40;99.90;;;;;;5004823;28;20037;-31
2023/04/19 09:36:01;;;;;;;16.58;8.77;;;10.60;99.90;;;;;;5003184;28;20037;-32
2023/04/19 09:38:27;;;;;;;14.95;9.02;;;10.70;99.90;;;;;;5001629;28;20029;-32
2023/04/19 09:41:06;;;;;;;16.10;8.88;;;10.70;99.90;;;;;;5005745;28;20084;-32
2023/04/19 09:43:32;;;;;;;12.50;8.70;;;10.70;99.90;;;;;;5007072;28;20057;-31
2023/04/19 09:45:57;;;;;;;14.35;8.50;;;10.70;99.90;;;;;;5000377;28;20026;-31
2023/04/19 09:48:23;;;;;;;16.23;8.88;;;10.80;99.90;;;;;;4999438;28;20889;-32
2023/04/19 09:50:53;;;;;;;15.55;8.80;;;10.80;99.90;;;;;;5002665;28;20402;-32
2023/04/19 09:53:19;;;;;;;14.25;8.30;;;10.80;99.90;;;;;;5002266;28;20522;-31
2023/04/19 09:55:48;;;;;;;16.25;8.88;;;10.90;99.90;;;;;;5006148;28;20165;-32
2023/04/19 09:58:15;;;;;;;13.95;8.35;;;11.20;99.90;;;;;;5007083;28;20104;-31
2023/04/19 10:00:43;;;;;;;14.07;8.10;;;11.30;99.90;;;;;;5003560;28;20018;-31
2023/04/19 10:03:09;;;;;;;14.00;8.65;;;11.50;99.90;;;;;;5005163;28;20064;-32
2023/04/19 10:05:41;;;;;;;16.55;8.30;;;11.40;99.90;;;;;;5003839;28;20038;-32
2023/04/19 10:08:09;;;;;;;15.93;9.57;;;11.40;99.90;;;;;;5005903;28;20030;-31
2023/04/19 10:10:36;;;;;;;17.85;9.35;;;11.20;99.90;;;;;;5004565;28;20031;-31
2023/04/19 10:13:03;;;;;;;15.13;8.13;;;11.30;99.90;;;;;;5006076;28;20140;-31
2023/04/19 10:15:35;;;;;;;12.20;8.20;;;11.40;99.90;;;;;;5001092;28;20057;-32
2023/04/19 10:18:01;;;;;;;13.82;8.10;;;11.40;99.90;;;;;;5007784;28;20034;-32
2023/04/19 10:20:54;;;;;;;13.48;8.38;;;11.60;99.90;;;;;;5003595;28;20474;-31
2023/04/19 10:23:21;;;;;;;13.02;8.32;;;12.00;99.90;;;;;;5001752;28;20052;-32
2023/04/19 10:25:47;;;;;;;14.45;8.30;;;11.90;99.90;;;;;;5004128;28;20029;-32
2023/04/19 10:28:15;;;;;;;12.95;8.18;;;11.60;99.90;;;;;;5006173;28;20415;-32
2023/04/19 10:30:57;;;;;;;13.82;8.63;;;11.50;99.90;;;;;;5003378;28;20110;-31
2023/04/19 10:33:28;;;;;;;12.88;8.20;;;11.30;99.90;;;;;;5006286;28;20030;-31
2023/04/19 10:36:00;;;;;;;16.83;8.25;;;11.30;99.90;;;;;;5000206;28;20129;-31
2023/04/19 10:38:43;;;;;;;14.40;8.15;;;11.30;99.90;;;;;;5004704;28;20034;-31
2023/04/19 10:41:13;;;;;;;16.58;8.27;;;11.30;99.90;;;;;;5002949;28;20021;-31
2023/04/19 10:43:44;;;;;;;15.20;8.10;;;11.40;99.90;;;;;;5004825;28;20065;-31
2023/04/19 10:46:36;;;;;;;13.50;7.97;;;11.30;99.90;;;;;;5001897;28;20034;-31
2023/04/19 10:49:03;;;;;;;15.45;8.10;;;11.20;99.90;;;;;;5007001;28;20037;-31
2023/04/19 10:51:43;;;;;;;13.05;8.32;;;11.10;99.90;;;;;;5003509;28;20121;-31
2023/04/19 10:54:31;;;;;;;12.15;7.90;;;11.00;99.90;;;;;;5002003;28;20030;-31
2023/04/19 10:57:04;;;;;;;;;;;10.90;99.90;;;;;;5005403;28;20144;-32
2023/04/19 10:59:40;;;;;;;15.75;8.90;;;10.80;99.90;;;;;;5003577;28;19913;-31
2023/04/19 11:02:20;;;;;;;16.30;9.80;;;10.40;99.90;;;;;;5000084;28;20112;-31
2023/04/19 11:04:49;;;;;;;19.40;10.95;;;10.20;99.90;;;;;;5006066;28;20042;-31
2023/04/19 11:07:17;;;;;;;15.35;8.40;;;10.20;99.90;;;;;;5003015;28;20442;-31
2023/04/19 11:09:47;;;;;;;17.58;10.05;;;10.00;99.90;;;;;;5001197;28;21223;-31
2023/04/19 11:12:15;;;;;;;17.98;10.05;;;10.00;99.90;;;;;;5002456;28;20033;-32
2023/04/19 11:14:43;;;;;;;17.38;9.48;;;9.90;99.90;;;;;;5003895;28;20034;-32
2023/04/19 11:17:27;;;;;;;17.13;9.88;;;9.90;99.90;;;;;;5001572;28;20081;-31
2023/04/19 11:19:56;;;;;;;15.77;9.43;;;9.80;99.90;;;;;;5003309;28;20069;-31
2023/04/19 11:22:32;;;;;;;15.45;9.20;;;9.70;99.90;;;;;;5004989;28;20056;-31
2023/04/19 11:25:07;;;;;;;15.68;8.52;;;9.70;99.90;;;;;;5003334;28;20026;-31
2023/04/19 11:27:33;;;;;;;18.27;9.88;;;9.70;99.90;;;;;;5002154;28;20026;-32
2023/04/19 11:30:25;;;;;;;16.63;9.05;;;9.70;99.90;;;;;;5000971;28;20030;-32
2023/04/19 11:32:53;;;;;;;19.08;9.80;;;9.80;99.90;;;;;;5000138;28;20034;-31
2023/04/19 11:35:20;;;;;;;18.15;10.43;;;9.80;99.90;;;;;;5001617;28;20429;-31
2023/04/19 11:37:46;;;;;;;14.63;9.60;;;9.80;99.90;;;;;;5001947;28;20026;-31
2023/04/19 11:40:16;;;;;;;14.35;9.25;;;9.90;99.90;;;;;;5004546;28;20040;-33
2023/04/19 11:42:42;;;;;;;15.55;8.65;;;9.90;99.90;;;;;;5002500;28;20433;-32
2023/04/19 11:45:09;;;;;;;16.42;9.18;;;9.90;99.90;;;;;;5001295;28;20077;-31
2023/04/19 11:47:45;;;;;;;15.68;8.68;;;9.90;99.90;;;;;;5019765;28;20062;-32
2023/04/19 11:50:31;;;;;;;16.02;8.85;;;10.00;99.90;;;;;;5001261;28;20104;-31
2023/04/19 11:52:57;;;;;;;14.88;8.63;;;10.10;99.90;;;;;;5002112;28;20042;-31
2023/04/19 11:55:23;;;;;;;15.45;9.02;;;10.10;99.90;;;;;;5017151;28;20505;-32
2023/04/19 11:57:48;;;;;;;16.23;9.85;;;10.10;99.90;;;;;;5003175;28;20034;-31
2023/04/19 12:00:15;;;;;;;14.48;8.13;;;10.10;99.90;;;;;;5001085;28;20492;-31
2023/04/19 12:02:43;;;;;;;18.67;9.18;;;10.10;99.90;;;;;;5002796;28;20157;-31
2023/04/19 12:05:09;;;;;;;15.33;9.60;;;10.00;99.90;;;;;;5001979;28;20034;-31
2023/04/19 12:07:35;;;;;;;18.10;9.68;;;10.00;99.90;;;;;;5002483;28;20800;-31
2023/04/19 12:10:09;;;;;;;15.18;8.65;;;9.90;99.90;;;;;;5001772;28;20034;-31
2023/04/19 12:12:35;;;;;;;18.55;9.95;;;10.00;99.90;;;;;;5003501;28;20380;-32
2023/04/19 12:15:00;;;;;;;20.70;10.20;;;10.00;99.90;;;;;;5005517;28;20100;-30
2023/04/19 12:17:26;;;;;;;20.27;9.57;;;10.00;99.90;;;;;;5002806;28;20026;-31
2023/04/19 12:19:52;;;;;;;18.15;10.48;;;10.00;99.90;;;;;;5000966;28;20565;-31
2023/04/19 12:22:23;;;;;;;18.40;9.30;;;10.00;99.90;;;;;;4998021;28;20357;-31
2023/04/19 12:24:52;;;;;;;18.85;11.00;;;9.90;99.90;;;;;;5002834;28;20045;-31
2023/04/19 12:27:18;;;;;;;18.30;10.10;;;9.90;99.90;;;;;;4997937;28;20022;-31
2023/04/19 12:29:44;;;;;;;20.50;11.13;;;9.40;99.90;;;;;;5000516;28;20026;-31
2023/04/19 12:32:10;;;;;;;16.27;9.60;;;9.00;99.90;;;;;;5003055;28;20117;-31
2023/04/19 12:34:36;;;;;;;16.75;9.27;;;8.90;99.90;;;;;;5001295;28;20572;-31
2023/04/19 12:37:05;;;;;;;17.85;9.02;;;8.90;99.90;;;;;;5003689;28;20042;-31